createdAt,value
2023-10-24T00:00:03.513Z,10.27
2023-10-24T00:02:30.518Z,13.43
2023-10-24T00:04:57.216Z,10.52
2023-10-24T00:07:24.142Z,10.02
2023-10-24T00:09:50.909Z,14.73
2023-10-24T00:12:17.465Z,11.70
2023-10-24T00:14:44.343Z,11.25
2023-10-24T00:17:10.985Z,9.88
2023-10-24T00:19:37.632Z,18.10
2023-10-24T00:22:04.954Z,15.27
2023-10-24T00:24:31.527Z,12.30
2023-10-24T00:26:59.010Z,11.40
2023-10-24T00:29:26.319Z,11.55
2023-10-24T00:31:53.049Z,8.82
2023-10-24T00:34:19.792Z,17.35
2023-10-24T00:36:46.998Z,12.25
2023-10-24T00:39:13.782Z,11.95
2023-10-24T00:41:40.617Z,13.85
2023-10-24T00:44:08.547Z,17.58
2023-10-24T00:46:37.856Z,10.20
2023-10-24T00:49:04.716Z,16.65
2023-10-24T00:51:31.780Z,11.57
2023-10-24T00:53:59.210Z,16.75
2023-10-24T00:56:26.233Z,14.25
2023-10-24T00:58:53.384Z,11.57
2023-10-24T01:01:20.508Z,18.00
2023-10-24T01:03:48.298Z,18.05
2023-10-24T01:06:19.078Z,13.10
2023-10-24T01:08:45.738Z,12.98
2023-10-24T01:11:12.469Z,13.10
2023-10-24T01:13:39.602Z,11.80
2023-10-24T01:16:06.339Z,10.90
2023-10-24T01:18:33.022Z,13.30
2023-10-24T01:21:00.201Z,9.15
2023-10-24T01:23:29.906Z,11.90
2023-10-24T01:25:57.012Z,12.57
2023-10-24T01:28:23.907Z,10.85
2023-10-24T01:30:51.057Z,17.73
2023-10-24T01:33:17.653Z,16.60
2023-10-24T01:35:44.368Z,13.75
2023-10-24T01:38:11.513Z,11.60
2023-10-24T01:40:38.462Z,15.73
2023-10-24T01:43:05.409Z,13.27
2023-10-24T01:45:34.593Z,20.15
2023-10-24T01:48:01.469Z,14.00
2023-10-24T01:50:28.122Z,10.75
2023-10-24T01:52:55.182Z,15.43
2023-10-24T01:55:22.024Z,16.83
2023-10-24T01:57:48.602Z,10.88
2023-10-24T02:00:15.709Z,11.27
2023-10-24T02:02:42.677Z,16.30
2023-10-24T02:05:09.589Z,11.85
2023-10-24T02:07:36.955Z,13.55
2023-10-24T02:10:04.531Z,14.57
2023-10-24T02:12:31.124Z,14.27
2023-10-24T02:14:58.362Z,15.35
2023-10-24T02:17:24.984Z,15.55
2023-10-24T02:19:53.469Z,11.98
2023-10-24T02:22:20.886Z,23.33
2023-10-24T02:24:47.648Z,18.38
2023-10-24T02:27:14.187Z,12.23
2023-10-24T02:29:40.993Z,15.80
2023-10-24T02:32:07.629Z,13.57
2023-10-24T02:34:34.513Z,18.75
2023-10-24T02:37:01.501Z,15.52
2023-10-24T02:39:28.274Z,14.77
2023-10-24T02:41:55.033Z,15.60
2023-10-24T02:44:22.084Z,21.42
2023-10-24T02:46:48.860Z,15.68
2023-10-24T02:49:16.058Z,18.02
2023-10-24T02:51:43.187Z,14.35
2023-10-24T02:54:09.928Z,15.25
2023-10-24T02:56:36.711Z,17.23
2023-10-24T02:59:03.644Z,18.30
2023-10-24T03:01:30.491Z,16.65
2023-10-24T03:03:57.170Z,21.63
2023-10-24T03:06:24.355Z,20.27
2023-10-24T03:08:51.069Z,17.92
2023-10-24T03:11:24.776Z,25.38
2023-10-24T03:13:55.372Z,18.53
2023-10-24T03:16:23.130Z,20.40
2023-10-24T03:18:50.018Z,14.80
2023-10-24T03:21:18.155Z,17.17
2023-10-24T03:23:47.709Z,19.98
2023-10-24T03:26:14.469Z,15.57
2023-10-24T03:28:41.368Z,13.82
2023-10-24T03:31:09.133Z,12.77
2023-10-24T03:33:35.902Z,20.38
2023-10-24T03:36:02.922Z,18.33
2023-10-24T03:38:30.873Z,17.55
2023-10-24T03:40:57.617Z,20.55
2023-10-24T03:43:24.894Z,18.80
2023-10-24T03:45:51.731Z,14.68
2023-10-24T03:48:18.301Z,17.88
2023-10-24T03:50:45.094Z,16.35
2023-10-24T03:53:11.735Z,15.07
2023-10-24T03:55:39.206Z,18.30
2023-10-24T03:58:06.960Z,12.13
2023-10-24T04:00:33.685Z,15.75
2023-10-24T04:03:01.504Z,14.20
2023-10-24T04:05:32.354Z,15.80
2023-10-24T04:07:58.896Z,17.50
2023-10-24T04:10:25.801Z,15.40
2023-10-24T04:12:52.576Z,13.52
2023-10-24T04:15:19.490Z,20.92
2023-10-24T04:17:46.316Z,19.52
2023-10-24T04:20:15.597Z,17.80
2023-10-24T04:22:43.732Z,16.67
2023-10-24T04:25:11.420Z,22.73
2023-10-24T04:27:38.570Z,31.52
2023-10-24T04:30:11.089Z,21.27
2023-10-24T04:32:37.999Z,16.02
2023-10-24T04:35:06.696Z,28.65
2023-10-24T04:37:33.460Z,17.30
2023-10-24T04:40:00.295Z,20.70
2023-10-24T04:42:27.235Z,17.13
2023-10-24T04:44:54.670Z,28.20
2023-10-24T04:47:21.414Z,16.73
2023-10-24T04:49:47.934Z,16.10
2023-10-24T04:52:14.636Z,22.67
2023-10-24T04:54:42.105Z,25.08
2023-10-24T04:57:08.900Z,23.70
2023-10-24T04:59:38.468Z,18.92
2023-10-24T05:02:05.775Z,18.00
2023-10-24T05:04:32.459Z,15.23
2023-10-24T05:07:00.048Z,21.90
2023-10-24T05:09:26.819Z,16.38
2023-10-24T05:11:53.364Z,18.13
2023-10-24T05:14:19.953Z,16.20
2023-10-24T05:16:46.985Z,15.35
2023-10-24T05:19:14.402Z,17.17
2023-10-24T05:21:40.984Z,18.20
2023-10-24T05:24:08.173Z,18.05
2023-10-24T05:26:36.233Z,29.52
2023-10-24T05:29:02.927Z,16.15
2023-10-24T05:31:29.779Z,18.52
2023-10-24T05:33:56.569Z,21.23
2023-10-24T05:36:23.319Z,17.80
2023-10-24T05:38:50.241Z,19.88
2023-10-24T05:41:16.840Z,21.77
2023-10-24T05:43:43.667Z,23.95
2023-10-24T05:46:10.470Z,23.52
2023-10-24T05:48:40.141Z,20.50
2023-10-24T05:51:10.064Z,19.67
2023-10-24T05:53:37.278Z,22.42
2023-10-24T05:56:04.667Z,18.90
2023-10-24T05:58:31.486Z,25.77
2023-10-24T06:00:58.476Z,23.30
2023-10-24T06:03:27.736Z,24.30
2023-10-24T06:05:54.965Z,19.48
2023-10-24T06:08:29.486Z,42.65
2023-10-24T06:11:01.396Z,25.65
2023-10-24T06:13:28.252Z,38.17
2023-10-24T06:15:54.945Z,21.73
2023-10-24T06:18:23.653Z,25.20
2023-10-24T06:20:52.221Z,39.40
2023-10-24T06:23:19.032Z,40.83
2023-10-24T06:25:45.906Z,31.00
2023-10-24T06:28:14.766Z,26.65
2023-10-24T06:30:42.541Z,19.85
2023-10-24T06:33:09.320Z,26.70
2023-10-24T06:35:36.252Z,28.00
2023-10-24T06:38:02.915Z,29.58
2023-10-24T06:40:29.615Z,23.13
2023-10-24T06:42:56.709Z,40.55
2023-10-24T06:45:23.423Z,44.03
2023-10-24T06:47:50.207Z,43.13
2023-10-24T06:50:19.266Z,35.58
2023-10-24T06:52:45.888Z,39.25
2023-10-24T06:55:12.748Z,42.40
2023-10-24T06:57:39.531Z,38.60
2023-10-24T07:00:07.364Z,33.83
2023-10-24T07:02:35.337Z,43.72
2023-10-24T07:05:02.516Z,39.95
2023-10-24T07:07:29.376Z,36.63
2023-10-24T07:09:56.406Z,37.60
2023-10-24T07:12:23.324Z,26.00
2023-10-24T07:14:54.335Z,34.25
2023-10-24T07:17:21.029Z,28.75
2023-10-24T07:19:48.065Z,40.17
2023-10-24T07:22:16.092Z,42.47
2023-10-24T07:24:44.653Z,45.03
2023-10-24T07:27:12.184Z,44.90
2023-10-24T07:29:38.809Z,37.30
2023-10-24T07:32:05.784Z,48.75
2023-10-24T07:34:34.404Z,50.05
2023-10-24T07:37:02.016Z,57.55
2023-10-24T07:39:28.622Z,30.08
2023-10-24T07:41:55.479Z,28.85
2023-10-24T07:44:22.200Z,34.05
2023-10-24T07:46:48.763Z,29.40
2023-10-24T07:49:15.878Z,29.75
2023-10-24T07:51:42.664Z,39.13
2023-10-24T07:54:12.100Z,32.80
2023-10-24T07:56:42.372Z,31.73
2023-10-24T07:59:09.110Z,34.05
2023-10-24T08:01:36.062Z,29.60
2023-10-24T08:04:03.361Z,34.17
2023-10-24T08:06:32.217Z,36.70
2023-10-24T08:08:59.093Z,33.60
2023-10-24T08:11:25.905Z,28.30
2023-10-24T08:13:52.628Z,32.25
2023-10-24T08:16:21.888Z,29.17
2023-10-24T08:18:49.662Z,29.90
2023-10-24T08:21:16.247Z,30.40
2023-10-24T08:23:42.882Z,28.17
2023-10-24T08:26:09.687Z,40.45
2023-10-24T08:28:37.944Z,32.78
2023-10-24T08:31:04.550Z,31.42
2023-10-24T08:33:31.691Z,41.35
2023-10-24T08:35:58.576Z,44.28
2023-10-24T08:38:25.217Z,34.63
2023-10-24T08:40:52.571Z,29.08
2023-10-24T08:43:28.864Z,33.90
2023-10-24T08:45:57.156Z,40.55
2023-10-24T08:48:23.735Z,44.33
2023-10-24T08:50:50.468Z,42.22
2023-10-24T08:53:17.534Z,42.55
2023-10-24T08:55:54.354Z,35.95
2023-10-24T08:58:22.169Z,47.05
2023-10-24T09:00:49.135Z,39.67
2023-10-24T09:03:18.812Z,52.88
2023-10-24T09:05:47.021Z,37.53
2023-10-24T09:08:16.668Z,45.30
2023-10-24T09:10:45.419Z,63.92
2023-10-24T09:13:12.737Z,60.22
2023-10-24T09:15:40.514Z,56.75
2023-10-24T09:18:07.928Z,38.85
2023-10-24T09:20:35.401Z,51.47
2023-10-24T09:23:08.926Z,29.52
2023-10-24T09:25:36.205Z,33.55
2023-10-24T09:28:17.427Z,37.90
2023-10-24T09:30:45.143Z,31.08
2023-10-24T09:33:12.042Z,29.00
2023-10-24T09:35:39.345Z,19.08
2023-10-24T09:38:09.646Z,18.65
2023-10-24T09:40:40.375Z,21.40
2023-10-24T09:43:22.338Z,22.88
2023-10-24T09:45:50.980Z,22.45
2023-10-24T09:48:18.561Z,20.20
2023-10-24T09:50:47.952Z,21.10
2023-10-24T09:53:14.795Z,23.30
2023-10-24T09:55:49.248Z,25.85
2023-10-24T09:58:19.562Z,17.38
2023-10-24T10:00:51.071Z,20.80
2023-10-24T10:03:18.674Z,19.27
2023-10-24T10:05:46.152Z,24.27
2023-10-24T10:08:17.014Z,23.92
2023-10-24T10:10:46.801Z,25.10
2023-10-24T10:13:15.605Z,17.73
2023-10-24T10:15:57.090Z,19.33
2023-10-24T10:18:40.425Z,18.88
2023-10-24T10:21:30.998Z,19.13
2023-10-24T10:24:31.134Z,21.63
2023-10-24T10:27:19.056Z,22.27
2023-10-24T10:29:52.353Z,23.38
2023-10-24T10:32:42.292Z,19.58
2023-10-24T10:35:15.066Z,23.35
2023-10-24T10:37:41.965Z,26.48
2023-10-24T10:40:20.837Z,24.38
2023-10-24T10:42:49.358Z,19.63
2023-10-24T10:45:42.217Z,22.98
2023-10-24T10:48:09.779Z,23.98
2023-10-24T10:50:40.196Z,24.80
2023-10-24T10:53:36.850Z,20.70
2023-10-24T10:56:26.528Z,20.52
2023-10-24T10:59:12.960Z,18.20
2023-10-24T11:01:53.674Z,18.08
2023-10-24T11:04:20.683Z,20.23
2023-10-24T11:06:52.726Z,17.70
2023-10-24T11:09:21.612Z,16.42
2023-10-24T11:12:00.100Z,19.45
2023-10-24T11:14:28.644Z,13.65
2023-10-24T11:16:56.092Z,15.00
2023-10-24T11:19:23.998Z,16.42
2023-10-24T11:21:52.320Z,17.40
2023-10-24T11:24:21.940Z,16.00
2023-10-24T11:26:57.974Z,19.88
2023-10-24T11:29:24.830Z,19.23
2023-10-24T11:31:54.498Z,16.08
2023-10-24T11:34:21.310Z,25.80
2023-10-24T11:36:48.929Z,18.75
2023-10-24T11:39:15.751Z,18.00
2023-10-24T11:41:44.599Z,17.45
2023-10-24T11:44:19.806Z,15.38
2023-10-24T11:46:46.506Z,21.25
2023-10-24T11:49:16.639Z,16.95
2023-10-24T11:51:45.512Z,22.60
2023-10-24T11:54:18.585Z,20.77
2023-10-24T11:57:23.866Z,23.70
2023-10-24T11:59:58.813Z,23.88
2023-10-24T12:02:26.604Z,28.98
2023-10-24T12:04:54.422Z,25.60
2023-10-24T12:07:24.913Z,29.45
2023-10-24T12:09:51.583Z,20.85
2023-10-24T12:12:18.279Z,31.08
2023-10-24T12:14:45.466Z,32.55
2023-10-24T12:17:12.524Z,24.52
2023-10-24T12:19:43.363Z,30.40
2023-10-24T12:22:10.546Z,28.75
2023-10-24T12:24:37.127Z,27.10
2023-10-24T12:27:04.086Z,27.50
2023-10-24T12:29:31.428Z,31.70
2023-10-24T12:31:58.248Z,26.75
2023-10-24T12:34:24.987Z,23.42
2023-10-24T12:36:53.822Z,20.15
2023-10-24T12:39:22.438Z,18.85
2023-10-24T12:41:49.133Z,22.75
2023-10-24T12:44:17.151Z,1.20
2023-10-24T12:46:44.052Z,6.38
2023-10-24T12:49:14.268Z,6.88
2023-10-24T12:51:43.099Z,6.18
2023-10-24T12:54:10.300Z,5.05
2023-10-24T12:56:37.224Z,5.13
2023-10-24T12:59:07.631Z,5.05
2023-10-24T13:01:34.547Z,4.20
2023-10-24T13:04:01.529Z,3.88
2023-10-24T13:06:28.562Z,2.50
2023-10-24T13:08:55.527Z,2.45
2023-10-24T13:11:22.125Z,1.83
2023-10-24T13:13:49.330Z,1.17
2023-10-24T13:16:17.583Z,0.52
2023-10-24T13:18:44.520Z,0.38
2023-10-24T13:21:11.329Z,0.22
2023-10-24T13:23:37.921Z,0.20
2023-10-24T13:26:04.509Z,0.38
2023-10-24T13:28:31.347Z,0.20
2023-10-24T13:31:11.707Z,0.20
2023-10-24T13:34:04.784Z,0.10
2023-10-24T13:36:33.054Z,0.15
2023-10-24T13:39:00.032Z,0.10
2023-10-24T13:41:28.950Z,0.10
2023-10-24T13:43:58.811Z,0.10
2023-10-24T13:46:27.016Z,0.10
2023-10-24T13:48:53.732Z,0.10
2023-10-24T13:51:21.499Z,0.10
2023-10-24T13:53:48.806Z,0.10
2023-10-24T13:56:16.248Z,0.17
2023-10-24T13:58:42.982Z,0.10
2023-10-24T14:01:10.197Z,0.10
2023-10-24T14:03:37.231Z,0.10
2023-10-24T14:06:04.529Z,0.30
2023-10-24T14:08:31.794Z,0.10
2023-10-24T14:10:58.934Z,0.00
2023-10-24T14:13:25.905Z,0.10
2023-10-24T14:15:54.152Z,0.10
2023-10-24T14:18:20.752Z,0.10
2023-10-24T14:20:47.431Z,0.15
2023-10-24T14:23:15.233Z,0.10
2023-10-24T14:25:42.535Z,0.00
2023-10-24T14:28:11.910Z,0.10
2023-10-24T14:30:38.908Z,0.10
2023-10-24T14:33:05.674Z,0.10
2023-10-24T14:35:32.263Z,0.10
2023-10-24T14:37:59.040Z,0.03
2023-10-24T14:40:25.802Z,0.10
2023-10-24T14:42:52.360Z,0.10
2023-10-24T14:45:19.730Z,0.10
2023-10-24T14:47:46.602Z,0.10
2023-10-24T14:50:15.873Z,0.20
2023-10-24T14:52:42.947Z,0.10
2023-10-24T14:55:14.730Z,0.10
2023-10-24T14:57:44.822Z,0.10
2023-10-24T15:00:12.735Z,0.10
2023-10-24T15:02:40.342Z,0.10
2023-10-24T15:05:09.169Z,0.00
2023-10-24T15:07:36.232Z,0.08
2023-10-24T15:10:05.036Z,0.10
2023-10-24T15:12:32.100Z,0.10
2023-10-24T15:14:59.535Z,0.10
2023-10-24T15:17:27.042Z,0.10
2023-10-24T15:19:54.227Z,0.03
2023-10-24T15:22:22.063Z,0.00
2023-10-24T15:24:48.717Z,0.00
2023-10-24T15:27:15.284Z,0.00
2023-10-24T15:29:45.280Z,0.10
2023-10-24T15:32:14.404Z,0.10
2023-10-24T15:34:41.522Z,0.10
2023-10-24T15:37:08.985Z,0.10
2023-10-24T15:39:36.343Z,0.03
2023-10-24T15:42:03.384Z,0.10
2023-10-24T15:44:30.585Z,0.17
2023-10-24T15:46:57.672Z,0.00
2023-10-24T15:49:24.757Z,0.00
2023-10-24T15:51:51.642Z,0.08
2023-10-24T15:54:18.171Z,0.00
2023-10-24T15:56:44.798Z,0.08
2023-10-24T15:59:14.666Z,0.10
2023-10-24T16:01:41.715Z,0.05
2023-10-24T16:04:08.574Z,0.10
2023-10-24T16:06:35.636Z,0.00
2023-10-24T16:09:02.209Z,0.00
2023-10-24T16:11:29.031Z,0.10
2023-10-24T16:13:58.002Z,0.05
2023-10-24T16:16:25.848Z,0.10
2023-10-24T16:18:53.481Z,0.10
2023-10-24T16:21:20.292Z,0.10
2023-10-24T16:23:47.172Z,0.20
2023-10-24T16:26:14.244Z,0.20
2023-10-24T16:28:41.810Z,0.00
2023-10-24T16:31:08.502Z,0.15
2023-10-24T16:33:35.779Z,0.15
2023-10-24T16:36:04.677Z,0.20
2023-10-24T16:38:32.923Z,0.10
2023-10-24T16:41:00.130Z,0.17
2023-10-24T16:43:28.134Z,0.17
2023-10-24T16:45:54.741Z,0.13
2023-10-24T16:48:21.889Z,0.17
2023-10-24T16:50:54.496Z,0.00
2023-10-24T16:53:21.149Z,0.30
2023-10-24T16:55:49.789Z,0.10
2023-10-24T16:58:16.803Z,0.25
2023-10-24T17:00:44.289Z,0.10
2023-10-24T17:03:11.029Z,0.10
2023-10-24T17:05:42.393Z,0.13
2023-10-24T17:08:09.637Z,0.15
2023-10-24T17:10:38.287Z,0.20
2023-10-24T17:13:05.288Z,0.10
2023-10-24T17:15:31.971Z,0.15
2023-10-24T17:17:58.794Z,0.20
2023-10-24T17:20:25.853Z,0.10
2023-10-24T17:22:52.557Z,0.10
2023-10-24T17:25:19.499Z,0.10
2023-10-24T17:27:46.432Z,0.20
2023-10-24T17:30:14.412Z,0.00
2023-10-24T17:32:41.015Z,0.10
2023-10-24T17:35:08.013Z,0.90
2023-10-24T17:37:37.023Z,0.10
2023-10-24T17:40:08.160Z,0.10
2023-10-24T17:42:37.286Z,0.43
2023-10-24T17:45:07.393Z,0.10
2023-10-24T17:47:34.342Z,0.10
2023-10-24T17:50:02.163Z,0.17
2023-10-24T17:52:28.759Z,0.10
2023-10-24T17:54:56.551Z,0.10
2023-10-24T17:57:23.565Z,0.10
2023-10-24T17:59:50.120Z,0.13
2023-10-24T18:02:16.837Z,0.52
2023-10-24T18:04:44.183Z,0.10
2023-10-24T18:09:40.946Z,0.13
2023-10-24T18:12:08.661Z,0.30
2023-10-24T18:14:35.753Z,0.13
2023-10-24T18:17:03.944Z,0.20
2023-10-24T18:19:31.430Z,0.10
2023-10-24T18:21:57.941Z,0.00
2023-10-24T18:24:24.584Z,0.10
2023-10-24T18:26:51.477Z,0.30
2023-10-24T18:29:18.310Z,0.10
2023-10-24T18:31:45.043Z,0.10
2023-10-24T18:34:11.976Z,0.43
2023-10-24T18:36:38.516Z,0.30
2023-10-24T18:39:08.745Z,0.10
2023-10-24T18:41:38.731Z,0.17
2023-10-24T18:44:09.299Z,0.63
2023-10-24T18:46:36.570Z,0.23
2023-10-24T18:49:03.546Z,0.10
2023-10-24T18:51:30.387Z,0.10
2023-10-24T18:53:57.588Z,0.10
2023-10-24T18:56:26.093Z,0.10
2023-10-24T18:59:07.321Z,0.30
2023-10-24T19:01:34.347Z,0.17
2023-10-24T19:04:08.555Z,0.10
2023-10-24T19:06:36.216Z,0.10
2023-10-24T19:09:03.713Z,0.17
2023-10-24T19:11:33.975Z,0.10
2023-10-24T19:14:02.515Z,0.27
2023-10-24T19:16:31.542Z,0.20
2023-10-24T19:18:59.773Z,0.13
2023-10-24T19:21:40.352Z,0.20
2023-10-24T19:24:07.713Z,0.10
2023-10-24T19:26:38.277Z,0.10
2023-10-24T19:29:11.158Z,0.20
2023-10-24T19:31:43.562Z,0.20
2023-10-24T19:34:12.885Z,0.10
2023-10-24T19:36:41.529Z,0.23
2023-10-24T19:39:11.338Z,0.10
2023-10-24T19:41:39.370Z,0.20
2023-10-24T19:44:10.263Z,0.20
2023-10-24T19:46:46.140Z,0.30
2023-10-24T19:49:13.783Z,0.17
2023-10-24T19:51:43.773Z,0.10
2023-10-24T19:54:12.562Z,0.17
2023-10-24T19:56:42.100Z,0.10
2023-10-24T19:59:11.206Z,0.10
2023-10-24T20:01:38.488Z,0.30
2023-10-24T20:04:05.960Z,0.37
2023-10-24T20:06:36.885Z,0.10
2023-10-24T20:09:07.215Z,0.10
2023-10-24T20:12:36.961Z,0.20
2023-10-24T20:14:22.646Z,0.20
2023-10-24T20:16:54.922Z,0.30
2023-10-24T20:19:21.883Z,0.10
2023-10-24T20:21:51.699Z,0.20
2023-10-24T20:24:18.972Z,0.20
2023-10-24T20:26:50.089Z,0.20
2023-10-24T20:29:16.642Z,0.30
2023-10-24T20:31:45.504Z,0.53
2023-10-24T20:34:15.456Z,0.10
2023-10-24T20:36:42.489Z,0.23
2023-10-24T20:39:14.983Z,0.10
2023-10-24T20:41:45.388Z,0.13
2023-10-24T20:44:12.537Z,0.20
2023-10-24T20:46:39.870Z,0.10
2023-10-24T20:49:07.570Z,0.20
2023-10-24T20:51:34.768Z,0.10
2023-10-24T20:54:05.922Z,0.10
2023-10-24T20:56:32.638Z,0.30
2023-10-24T20:59:00.369Z,0.13
2023-10-24T21:01:27.427Z,0.20
2023-10-24T21:03:57.445Z,0.30
2023-10-24T21:06:25.164Z,0.20
2023-10-24T21:08:52.335Z,0.20
2023-10-24T21:11:19.065Z,0.13
2023-10-24T21:13:46.028Z,0.30
2023-10-24T21:16:13.281Z,0.20
2023-10-24T21:18:39.982Z,0.40
2023-10-24T21:21:09.703Z,0.30
2023-10-24T21:23:36.635Z,0.27
2023-10-24T21:26:03.558Z,0.13
2023-10-24T21:28:30.807Z,0.10
2023-10-24T21:30:57.667Z,0.20
2023-10-24T21:33:27.645Z,0.20
2023-10-24T21:35:55.139Z,0.27
2023-10-24T21:38:22.013Z,0.10
2023-10-24T21:40:55.525Z,0.20
2023-10-24T21:43:24.724Z,0.15
2023-10-24T21:45:53.661Z,0.30
2023-10-24T21:48:20.396Z,0.20
2023-10-24T21:50:47.269Z,0.30
2023-10-24T21:53:13.943Z,0.27
2023-10-24T21:55:40.449Z,0.20
2023-10-24T21:58:07.362Z,0.20
2023-10-24T22:00:34.878Z,0.10
2023-10-24T22:03:02.337Z,0.20
2023-10-24T22:05:29.324Z,0.20
2023-10-24T22:07:56.076Z,0.10
2023-10-24T22:10:22.949Z,0.10
2023-10-24T22:12:49.876Z,0.13
2023-10-24T22:15:16.801Z,0.20
2023-10-24T22:17:43.796Z,0.10
2023-10-24T22:20:11.490Z,0.10
2023-10-24T22:22:39.636Z,0.10
2023-10-24T22:25:06.774Z,0.30
2023-10-24T22:27:33.665Z,0.27
2023-10-24T22:30:00.678Z,0.10
2023-10-24T22:32:27.358Z,0.20
2023-10-24T22:34:54.164Z,0.10
2023-10-24T22:37:21.386Z,0.10
2023-10-24T22:39:48.303Z,0.20
2023-10-24T22:42:15.476Z,0.10
2023-10-24T22:44:43.787Z,0.10
2023-10-24T22:47:10.664Z,0.10
2023-10-24T22:49:39.171Z,0.30
2023-10-24T22:52:06.055Z,0.27
2023-10-24T22:54:32.801Z,0.23
2023-10-24T22:56:59.678Z,0.13
2023-10-24T22:59:26.480Z,0.20
2023-10-24T23:01:53.358Z,0.20
2023-10-24T23:04:20.653Z,0.10
2023-10-24T23:06:47.378Z,0.10
2023-10-24T23:09:14.011Z,0.63
2023-10-24T23:11:41.222Z,0.20
2023-10-24T23:14:07.990Z,0.27
2023-10-24T23:16:34.958Z,0.10
2023-10-24T23:19:02.175Z,0.20
2023-10-24T23:21:29.189Z,0.20
2023-10-24T23:23:55.867Z,0.20
2023-10-24T23:26:22.675Z,0.17
2023-10-24T23:28:49.285Z,0.20
2023-10-24T23:31:16.047Z,0.30
2023-10-24T23:33:45.804Z,0.10
2023-10-24T23:36:12.759Z,0.20
2023-10-24T23:38:39.355Z,0.23
2023-10-24T23:41:06.249Z,0.17
2023-10-24T23:43:33.866Z,0.20
2023-10-24T23:46:00.828Z,0.20
2023-10-24T23:48:27.702Z,0.10
2023-10-24T23:50:54.298Z,0.30
2023-10-24T23:53:20.995Z,0.20
2023-10-24T23:55:48.040Z,0.10
2023-10-24T23:58:15.832Z,0.17
